Time;durP1;ratioP1;P1;durP2;ratioP2;P2;SDS_P1;SDS_P2;PMS_P1;PMS_P2;Temp;Humidity;BMP_temperature;BMP_pressure;BME280_temperature;BME280_humidity;BME280_pressure;Samples;Min_cycle;Max_cycle;Signal;HPM_P1;HPM_P2
2023/01/05 00:01:02;;;;;;;9.15;3.80;;;-6.60;99.90;;;;;;4780617;30;20151;-69
2023/01/05 00:03:30;;;;;;;9.82;4.35;;;-6.60;99.90;;;;;;4783730;29;20047;-70
2023/01/05 00:06:00;;;;;;;13.02;5.05;;;-6.60;99.90;;;;;;4785724;29;20101;-69
2023/01/05 00:08:28;;;;;;;12.52;4.28;;;-6.50;99.90;;;;;;4775442;29;20131;-70
2023/01/05 00:24:42;;;;;;;9.13;4.45;;;-6.50;99.90;;;;;;4784909;29;20047;-70
2023/01/05 00:27:11;;;;;;;10.02;4.93;;;-6.50;99.90;;;;;;4786128;30;20044;-70
2023/01/05 00:29:38;;;;;;;10.38;4.43;;;-6.60;99.90;;;;;;4783300;29;20059;-70
2023/01/05 00:32:06;;;;;;;11.60;4.10;;;-6.60;99.90;;;;;;4785414;29;20054;-70
2023/01/05 00:34:33;;;;;;;8.02;4.35;;;-6.70;99.90;;;;;;4783713;29;20104;-70
2023/01/05 00:37:02;;;;;;;13.77;4.50;;;-6.70;99.90;;;;;;4783874;29;20043;-70
2023/01/05 00:39:29;;;;;;;8.52;4.25;;;-6.80;99.90;;;;;;4783483;29;20059;-69
2023/01/05 00:41:56;;;;;;;10.13;4.78;;;-6.80;99.90;;;;;;4795595;29;20489;-70
2023/01/05 00:44:25;;;;;;;8.82;4.25;;;-6.90;99.90;;;;;;4780164;29;20158;-70
2023/01/05 00:46:54;;;;;;;13.63;4.72;;;-6.90;99.90;;;;;;4778078;30;20143;-69
2023/01/05 00:49:21;;;;;;;9.95;3.53;;;-6.90;99.90;;;;;;4781920;29;20047;-71
2023/01/05 00:51:49;;;;;;;8.82;3.80;;;-6.80;99.90;;;;;;4785981;29;20390;-68
2023/01/05 00:54:17;;;;;;;8.75;3.95;;;-6.70;99.90;;;;;;4785503;29;20055;-70
2023/01/05 00:56:48;;;;;;;13.13;4.63;;;-6.60;99.90;;;;;;4783765;30;20063;-68
2023/01/05 00:59:16;;;;;;;8.73;4.20;;;-6.40;99.90;;;;;;4781278;30;20055;-69
2023/01/05 01:01:48;;;;;;;9.80;4.07;;;-6.20;99.90;;;;;;4784229;30;20051;-70
2023/01/05 01:04:16;;;;;;;7.47;3.70;;;-6.20;99.90;;;;;;4785225;29;20070;-70
2023/01/05 01:06:44;;;;;;;12.73;4.80;;;-6.10;99.90;;;;;;4780737;30;20135;-69
2023/01/05 01:09:12;;;;;;;12.75;3.78;;;-6.10;99.90;;;;;;4796185;29;20055;-70
2023/01/05 01:11:40;;;;;;;11.93;4.13;;;-6.10;99.90;;;;;;4775625;30;20051;-69
2023/01/05 01:14:09;;;;;;;7.90;3.20;;;-6.10;99.90;;;;;;4784730;29;20066;-69
2023/01/05 01:16:37;;;;;;;11.35;4.43;;;-6.20;99.90;;;;;;4794882;29;20162;-69
2023/01/05 01:19:06;;;;;;;11.55;4.45;;;-6.20;99.90;;;;;;4797170;29;20113;-70
2023/01/05 01:21:33;;;;;;;10.88;4.38;;;-6.20;99.90;;;;;;4782644;30;20051;-70
2023/01/05 01:24:01;;;;;;;10.50;4.07;;;-6.30;99.90;;;;;;4786487;29;20051;-70
2023/01/05 01:26:29;;;;;;;9.30;4.55;;;-6.30;99.90;;;;;;4783348;29;20522;-69
2023/01/05 01:28:57;;;;;;;10.65;3.63;;;-6.30;99.90;;;;;;4781266;29;20083;-70
2023/01/05 01:31:24;;;;;;;9.40;4.25;;;-6.30;99.90;;;;;;4783908;30;20529;-70
2023/01/05 01:33:52;;;;;;;9.95;4.00;;;-6.40;99.90;;;;;;4783306;29;20065;-69
2023/01/05 01:36:21;;;;;;;10.60;4.43;;;-6.40;99.90;;;;;;4785476;29;20055;-69
2023/01/05 01:38:48;;;;;;;9.40;3.63;;;-6.50;99.90;;;;;;4784036;29;20051;-69
2023/01/05 01:41:16;;;;;;;11.40;3.95;;;-6.60;99.90;;;;;;4795336;29;20517;-69
2023/01/05 01:43:47;;;;;;;7.78;3.53;;;-6.70;99.90;;;;;;4774613;29;20059;-71
2023/01/05 01:46:18;;;;;;;6.53;3.22;;;-6.70;99.90;;;;;;4784261;30;20059;-70
2023/01/05 01:48:51;;;;;;;8.68;3.60;;;-6.80;99.90;;;;;;4783588;29;20070;-69
2023/01/05 01:51:25;;;;;;;12.00;4.32;;;-6.80;99.90;;;;;;4785407;29;20051;-71
2023/01/05 01:53:56;;;;;;;12.00;4.18;;;-6.90;99.90;;;;;;4783458;29;20055;-70
2023/01/05 01:56:27;;;;;;;10.60;4.20;;;-6.90;99.90;;;;;;4783426;29;20072;-69
2023/01/05 01:58:55;;;;;;;7.00;3.70;;;-6.90;99.90;;;;;;4767693;30;20066;-68
2023/01/05 02:01:23;;;;;;;7.63;3.70;;;-6.70;99.90;;;;;;4775812;30;20147;-69
2023/01/05 02:03:51;;;;;;;11.77;4.18;;;-6.50;99.90;;;;;;4786560;29;20060;-69
2023/01/05 02:06:19;;;;;;;11.60;4.35;;;-6.40;99.90;;;;;;4775167;30;20070;-69
2023/01/05 02:08:48;;;;;;;9.32;3.80;;;-6.30;99.90;;;;;;4784963;29;20158;-70
2023/01/05 02:11:37;;;;;;;10.77;4.35;;;-6.30;99.90;;;;;;4782862;29;20406;-69
2023/01/05 02:14:20;;;;;;;14.25;5.28;;;-6.40;99.90;;;;;;4784687;29;20063;-70
2023/01/05 02:17:04;;;;;;;10.38;3.60;;;-6.50;99.90;;;;;;4790943;29;20070;-70
2023/01/05 02:20:24;;;;;;;8.20;3.38;;;-6.60;99.90;;;;;;4784858;29;20429;-70
2023/01/05 02:23:36;;;;;;;10.88;3.63;;;-6.70;99.90;;;;;;4796946;29;20061;-70
2023/01/05 02:27:12;;;;;;;12.75;4.38;;;-6.90;99.90;;;;;;4784521;29;20051;-70
2023/01/05 02:30:15;;;;;;;8.57;3.35;;;-6.90;99.90;;;;;;4747963;29;20269;-70
2023/01/05 02:32:55;;;;;;;6.97;3.38;;;-7.00;99.90;;;;;;4768178;30;20154;-69
2023/01/05 02:35:33;;;;;;;8.27;3.90;;;-7.00;99.90;;;;;;4773652;30;20070;-70
2023/01/05 02:38:10;;;;;;;12.82;4.50;;;-7.00;99.90;;;;;;4783690;29;20086;-70
2023/01/05 02:40:45;;;;;;;11.85;4.43;;;-7.10;99.90;;;;;;4782287;30;20513;-71
2023/01/05 02:43:15;;;;;;;6.82;3.25;;;-7.10;99.90;;;;;;4781819;30;20060;-71
2023/01/05 02:45:44;;;;;;;11.00;4.35;;;-7.00;99.90;;;;;;4782867;29;20184;-70
2023/01/05 02:48:13;;;;;;;9.73;3.80;;;-7.00;99.90;;;;;;4782286;29;20054;-69
2023/01/05 02:50:46;;;;;;;10.77;3.50;;;-6.90;99.90;;;;;;4798137;29;20063;-69
2023/01/05 02:53:20;;;;;;;9.25;3.95;;;-6.70;99.90;;;;;;4784651;29;20098;-70
2023/01/05 02:55:53;;;;;;;9.02;3.50;;;-6.60;99.90;;;;;;4782785;29;20051;-69
2023/01/05 02:58:26;;;;;;;10.07;3.13;;;-6.30;99.90;;;;;;4773112;30;20051;-70
2023/01/05 03:00:56;;;;;;;8.40;3.30;;;-6.20;99.90;;;;;;4784720;29;20138;-70
2023/01/05 03:03:34;;;;;;;7.93;3.20;;;-6.10;99.90;;;;;;4787749;29;20527;-71
2023/01/05 03:06:06;;;;;;;5.93;3.63;;;-6.10;99.90;;;;;;4774078;30;20055;-70
2023/01/05 03:08:40;;;;;;;7.07;2.88;;;-6.20;99.90;;;;;;4780950;29;20460;-70
2023/01/05 03:14:00;;;;;;;9.98;3.15;;;-6.40;99.90;;;;;;4785910;29;20051;-70
2023/01/05 03:16:33;;;;;;;11.00;4.30;;;-6.50;99.90;;;;;;4784981;30;20079;-70
2023/01/05 03:36:07;;;;;;;7.80;3.67;;;-6.70;99.90;;;;;;4780311;30;20059;-70
2023/01/05 03:38:41;;;;;;;7.50;3.40;;;-6.50;99.90;;;;;;4786877;29;20063;-69
2023/01/05 03:41:10;;;;;;;10.52;3.33;;;-6.40;99.90;;;;;;4786462;30;20135;-69
2023/01/05 03:43:40;;;;;;;12.43;3.00;;;-6.20;99.90;;;;;;4783804;29;20055;-69
2023/01/05 03:46:16;;;;;;;7.45;3.28;;;-6.10;99.90;;;;;;4785999;30;20063;-70
2023/01/05 03:48:44;;;;;;;7.53;3.63;;;-6.10;99.90;;;;;;4783958;30;20158;-70
2023/01/05 03:51:16;;;;;;;9.10;3.33;;;-6.00;99.90;;;;;;4785710;30;20059;-69
2023/01/05 03:53:44;;;;;;;9.15;3.65;;;-6.00;99.90;;;;;;4783312;29;20055;-70
2023/01/05 03:56:12;;;;;;;10.75;4.20;;;-5.90;99.90;;;;;;4785675;30;20071;-70
2023/01/05 03:58:39;;;;;;;10.13;4.28;;;-5.90;99.90;;;;;;4769622;30;20521;-70
2023/01/05 04:01:07;;;;;;;13.40;4.05;;;-5.90;99.90;;;;;;4768390;30;20104;-70
2023/01/05 04:03:35;;;;;;;8.57;3.47;;;-6.00;99.90;;;;;;4783714;30;20517;-70
2023/01/05 04:06:07;;;;;;;8.50;3.47;;;-6.20;99.90;;;;;;4785327;30;20052;-70
2023/01/05 04:08:38;;;;;;;10.95;3.90;;;-6.30;99.90;;;;;;4786476;29;20104;-70
2023/01/05 04:11:15;;;;;;;12.65;3.17;;;-6.40;99.90;;;;;;4783289;30;20065;-70
2023/01/05 04:13:48;;;;;;;9.60;4.40;;;-6.50;99.90;;;;;;4780432;30;20059;-70
2023/01/05 04:16:17;;;;;;;6.63;2.67;;;-6.50;99.90;;;;;;4799392;29;20056;-70
2023/01/05 04:18:45;;;;;;;8.02;2.92;;;-6.40;99.90;;;;;;4786152;30;20085;-70
2023/01/05 04:21:16;;;;;;;6.38;3.10;;;-6.30;99.90;;;;;;4798290;29;20059;-70
2023/01/05 04:23:45;;;;;;;6.88;2.63;;;-6.30;99.90;;;;;;4799769;29;20066;-70
2023/01/05 04:26:14;;;;;;;5.75;3.03;;;-6.20;99.90;;;;;;4783825;30;20059;-70
2023/01/05 04:28:43;;;;;;;13.38;3.13;;;-6.20;99.90;;;;;;4785598;29;20121;-66
2023/01/05 04:31:12;;;;;;;7.50;2.58;;;-6.10;99.90;;;;;;4798259;29;20047;-67
2023/01/05 04:33:40;;;;;;;11.45;3.63;;;-6.10;99.90;;;;;;4781800;29;20438;-66
2023/01/05 04:36:08;;;;;;;5.20;2.28;;;-6.10;99.90;;;;;;4783850;30;20061;-66
2023/01/05 04:38:37;;;;;;;6.13;2.45;;;-6.10;99.90;;;;;;4785112;29;20059;-65
2023/01/05 04:41:08;;;;;;;10.35;2.85;;;-6.00;99.90;;;;;;4783015;30;20055;-67
2023/01/05 04:43:35;;;;;;;12.77;2.97;;;-6.00;99.90;;;;;;4781273;29;20059;-67
2023/01/05 04:46:03;;;;;;;8.38;2.97;;;-6.10;99.90;;;;;;4783246;30;20546;-66
2023/01/05 04:48:32;;;;;;;5.47;2.38;;;-6.20;99.90;;;;;;4769125;30;20063;-68
2023/01/05 04:51:00;;;;;;;5.95;3.30;;;-6.20;99.90;;;;;;4781340;29;20120;-65
2023/01/05 04:53:32;;;;;;;9.05;3.03;;;-6.30;99.90;;;;;;4781427;29;20059;-66
2023/01/05 04:56:00;;;;;;;6.22;2.25;;;-6.40;99.90;;;;;;4780122;30;20120;-65
2023/01/05 04:58:34;;;;;;;;;;;-6.50;99.90;;;;;;4782053;29;20065;-65
2023/01/05 05:01:02;;;;;;;10.38;3.17;;;-6.50;99.90;;;;;;4773661;30;20487;-65
2023/01/05 05:03:33;;;;;;;8.40;3.17;;;-6.50;99.90;;;;;;4782886;30;20516;-67
2023/01/05 05:06:01;;;;;;;4.28;2.85;;;-6.50;99.90;;;;;;4780172;30;20424;-66
2023/01/05 05:08:30;;;;;;;9.23;2.85;;;-6.50;99.90;;;;;;4777055;30;20474;-66
2023/01/05 05:10:59;;;;;;;5.97;2.75;;;-6.60;99.90;;;;;;4781649;30;20056;-67
2023/01/05 05:13:30;;;;;;;4.47;2.60;;;-6.70;99.90;;;;;;4794782;29;20044;-66
2023/01/05 05:16:00;;;;;;;8.80;2.80;;;-6.70;99.90;;;;;;4778383;30;20093;-66
2023/01/05 05:18:30;;;;;;;9.65;2.58;;;-6.70;99.90;;;;;;4780524;29;20052;-66
2023/01/05 05:20:57;;;;;;;8.35;2.90;;;-6.80;99.90;;;;;;4799793;29;20483;-66
2023/01/05 05:23:30;;;;;;;7.95;3.47;;;-6.90;99.90;;;;;;4784011;29;20421;-67
2023/01/05 05:25:59;;;;;;;7.75;2.60;;;-6.90;99.90;;;;;;4782259;30;20078;-65
2023/01/05 05:28:27;;;;;;;6.95;3.75;;;-7.00;99.90;;;;;;4782843;30;20420;-65
2023/01/05 05:30:55;;;;;;;6.00;2.63;;;-7.00;99.90;;;;;;4783704;29;20079;-65
2023/01/05 05:33:25;;;;;;;5.60;2.42;;;-7.00;99.90;;;;;;4784939;29;20055;-66
2023/01/05 05:35:53;;;;;;;9.60;2.60;;;-7.00;99.90;;;;;;4783031;29;20055;-66
2023/01/05 05:38:20;;;;;;;10.02;2.75;;;-7.00;99.90;;;;;;4785896;29;20086;-66
2023/01/05 05:40:49;;;;;;;7.70;3.05;;;-7.00;99.90;;;;;;4779988;30;20063;-65
2023/01/05 05:43:17;;;;;;;10.18;3.67;;;-6.90;99.90;;;;;;4786189;29;20112;-67
2023/01/05 05:45:44;;;;;;;7.72;3.20;;;-6.90;99.90;;;;;;4778143;29;20067;-66
2023/01/05 05:48:12;;;;;;;11.38;3.53;;;-6.90;99.90;;;;;;4784504;30;20628;-65
2023/01/05 05:50:41;;;;;;;9.20;2.70;;;-6.80;99.90;;;;;;4786149;29;20059;-65
2023/01/05 05:53:08;;;;;;;5.28;2.08;;;-6.80;99.90;;;;;;4785330;29;20077;-66
2023/01/05 05:55:36;;;;;;;7.93;2.63;;;-6.80;99.90;;;;;;4781435;29;20429;-65
2023/01/05 05:58:03;;;;;;;9.68;2.88;;;-6.90;99.90;;;;;;4783611;29;20051;-65
2023/01/05 06:00:31;;;;;;;8.10;2.67;;;-6.90;99.90;;;;;;4782734;29;20059;-67
2023/01/05 06:02:58;;;;;;;15.43;3.65;;;-6.90;99.90;;;;;;4777059;29;20043;-67
2023/01/05 06:05:26;;;;;;;6.55;3.08;;;-6.90;99.90;;;;;;4782932;29;20218;-67
2023/01/05 06:07:54;;;;;;;13.13;5.68;;;-6.90;99.90;;;;;;4783976;30;20149;-66
2023/01/05 06:10:22;;;;;;;8.18;2.70;;;-6.90;99.90;;;;;;4785458;29;20070;-65
2023/01/05 06:12:49;;;;;;;10.68;3.38;;;-6.90;99.90;;;;;;4783981;29;20055;-66
2023/01/05 06:15:17;;;;;;;8.43;1.92;;;-6.80;99.90;;;;;;4783562;29;20428;-66
2023/01/05 06:17:47;;;;;;;6.40;2.15;;;-6.80;99.90;;;;;;4783917;29;20051;-66
2023/01/05 06:20:16;;;;;;;8.40;3.50;;;-6.90;99.90;;;;;;4783686;29;20395;-66
2023/01/05 06:22:44;;;;;;;9.65;3.53;;;-7.00;99.90;;;;;;4781447;29;20059;-65
2023/01/05 06:25:13;;;;;;;5.82;2.60;;;-7.00;99.90;;;;;;4783274;29;20478;-65
2023/01/05 06:27:40;;;;;;;10.43;4.18;;;-7.00;99.90;;;;;;4785206;29;20091;-66
2023/01/05 06:30:09;;;;;;;10.43;2.70;;;-7.00;99.90;;;;;;4795481;29;20122;-66
2023/01/05 06:32:36;;;;;;;9.30;3.25;;;-7.00;99.90;;;;;;4780598;30;20142;-66
2023/01/05 06:35:04;;;;;;;10.82;3.70;;;-7.00;99.90;;;;;;4784873;29;20055;-65
2023/01/05 06:37:32;;;;;;;7.25;3.00;;;-7.00;99.90;;;;;;4787548;29;20060;-66
2023/01/05 06:40:00;;;;;;;7.35;2.70;;;-6.90;99.90;;;;;;4776603;29;20094;-68
2023/01/05 06:42:29;;;;;;;11.95;3.92;;;-6.90;99.90;;;;;;4775674;30;20056;-69
2023/01/05 06:44:56;;;;;;;10.13;3.65;;;-6.90;99.90;;;;;;4784520;29;20100;-68
2023/01/05 06:47:24;;;;;;;10.35;2.88;;;-6.80;99.90;;;;;;4783264;29;20456;-69
2023/01/05 06:49:51;;;;;;;6.60;3.30;;;-6.80;99.90;;;;;;4782568;30;20063;-69
2023/01/05 06:52:19;;;;;;;5.70;2.88;;;-6.80;99.90;;;;;;4784143;30;20051;-69
2023/01/05 06:54:46;;;;;;;16.00;3.10;;;-6.80;99.90;;;;;;4783396;29;20055;-69
2023/01/05 06:57:14;;;;;;;6.88;2.20;;;-6.70;99.90;;;;;;4782603;29;20481;-69
2023/01/05 06:59:43;;;;;;;7.45;3.13;;;-6.70;99.90;;;;;;4784501;29;20147;-69
2023/01/05 07:02:14;;;;;;;9.85;2.85;;;-6.70;99.90;;;;;;4782784;29;20058;-74
2023/01/05 07:04:44;;;;;;;8.88;3.35;;;-6.70;99.90;;;;;;4780045;30;20153;-73
2023/01/05 07:07:13;;;;;;;6.38;2.63;;;-6.60;99.90;;;;;;4782382;30;20552;-74
2023/01/05 07:09:41;;;;;;;8.27;3.35;;;-6.60;99.90;;;;;;4780975;30;20151;-68
2023/01/05 07:12:11;;;;;;;7.78;3.38;;;-6.50;99.90;;;;;;4781962;30;20428;-69
2023/01/05 07:14:40;;;;;;;9.32;3.20;;;-6.60;99.90;;;;;;4783673;29;20083;-74
2023/01/05 07:17:11;;;;;;;9.13;2.85;;;-6.60;99.90;;;;;;4765807;30;20047;-74
2023/01/05 07:19:39;;;;;;;5.57;3.13;;;-6.60;99.90;;;;;;4784188;29;20545;-74
2023/01/05 07:22:06;;;;;;;15.77;3.65;;;-6.70;99.90;;;;;;4783755;30;20437;-72
2023/01/05 07:24:35;;;;;;;9.93;3.17;;;-6.70;99.90;;;;;;4783519;29;20047;-73
2023/01/05 07:27:03;;;;;;;6.90;2.97;;;-6.60;99.90;;;;;;4793007;29;20524;-73
2023/01/05 07:29:32;;;;;;;7.18;2.85;;;-6.60;99.90;;;;;;4779636;30;20121;-72
2023/01/05 07:32:02;;;;;;;8.27;3.53;;;-6.60;99.90;;;;;;4784421;30;20043;-68
2023/01/05 07:34:32;;;;;;;9.18;3.20;;;-6.50;99.90;;;;;;4786757;29;20539;-69
2023/01/05 07:36:59;;;;;;;6.20;2.40;;;-6.50;99.90;;;;;;4775835;29;20130;-68
2023/01/05 07:39:45;;;;;;;8.10;2.63;;;-6.50;99.90;;;;;;4795564;29;20062;-70
2023/01/05 07:42:20;;;;;;;7.15;2.88;;;-6.50;99.90;;;;;;4766630;30;20047;-70
2023/01/05 07:44:49;;;;;;;9.80;3.10;;;-6.50;99.90;;;;;;4775718;29;20108;-69
2023/01/05 07:47:17;;;;;;;9.32;3.50;;;-6.50;99.90;;;;;;4780151;29;20074;-72
2023/01/05 07:49:46;;;;;;;8.77;3.10;;;-6.50;99.90;;;;;;4783942;29;20067;-70
2023/01/05 07:52:13;;;;;;;6.82;2.92;;;-6.50;99.90;;;;;;4785473;29;20055;-69
2023/01/05 07:54:41;;;;;;;7.32;3.17;;;-6.40;99.90;;;;;;4784438;29;20104;-70
2023/01/05 07:57:08;;;;;;;11.45;2.70;;;-6.40;99.90;;;;;;4778556;29;20138;-70
2023/01/05 07:59:36;;;;;;;10.10;2.97;;;-6.30;99.90;;;;;;4783598;30;20067;-70
2023/01/05 08:02:03;;;;;;;6.13;2.88;;;-6.20;99.90;;;;;;4783855;30;20058;-70
2023/01/05 08:04:31;;;;;;;10.32;3.22;;;-6.20;99.90;;;;;;4796517;29;20067;-70
2023/01/05 08:07:00;;;;;;;11.98;3.65;;;-6.30;99.90;;;;;;4779397;30;20122;-70
2023/01/05 08:12:13;;;;;;;7.22;3.78;;;-6.50;99.90;;;;;;4786062;29;20043;-72
2023/01/05 08:14:41;;;;;;;8.13;3.58;;;-6.60;99.90;;;;;;4784650;29;20142;-70
2023/01/05 08:17:09;;;;;;;7.97;3.22;;;-6.50;99.90;;;;;;4781484;29;20162;-70
2023/01/05 08:19:37;;;;;;;7.10;3.45;;;-6.50;99.90;;;;;;4789985;29;20066;-71
2023/01/05 08:22:06;;;;;;;4.57;2.95;;;-6.40;99.90;;;;;;4779611;29;20517;-70
2023/01/05 08:24:34;;;;;;;6.20;2.78;;;-6.40;99.90;;;;;;4779479;29;20055;-69
2023/01/05 08:27:01;;;;;;;8.25;3.55;;;-6.30;99.90;;;;;;4781075;29;20493;-69
2023/01/05 08:29:29;;;;;;;9.25;3.47;;;-6.20;99.90;;;;;;4780625;29;20055;-70
2023/01/05 08:31:58;;;;;;;7.05;2.92;;;-6.20;99.90;;;;;;4782524;29;20098;-69
2023/01/05 08:34:25;;;;;;;10.57;3.25;;;-6.10;99.90;;;;;;4781335;29;20535;-69
2023/01/05 08:36:53;;;;;;;7.35;3.38;;;-6.20;99.90;;;;;;4778018;29;20059;-70
2023/01/05 08:39:22;;;;;;;5.50;3.60;;;-6.20;99.90;;;;;;4781925;29;20501;-70
2023/01/05 08:41:49;;;;;;;9.25;3.72;;;-6.10;99.90;;;;;;4776263;29;20056;-70
2023/01/05 08:44:17;;;;;;;9.95;3.80;;;-6.00;99.90;;;;;;4778972;30;20052;-70
2023/01/05 08:46:45;;;;;;;6.65;3.15;;;-6.00;99.90;;;;;;4778113;29;20659;-76
2023/01/05 08:49:12;;;;;;;5.47;2.67;;;-6.10;99.90;;;;;;4779533;30;20537;-74
2023/01/05 08:51:40;;;;;;;5.82;2.50;;;-6.10;99.90;;;;;;4777593;29;20070;-75
2023/01/05 08:54:07;;;;;;;5.05;2.55;;;-6.10;99.90;;;;;;4777575;29;20059;-69
2023/01/05 08:56:36;;;;;;;3.50;2.58;;;-6.30;99.90;;;;;;4778801;29;20055;-71
2023/01/05 08:59:04;;;;;;;7.22;2.80;;;-6.30;99.90;;;;;;4778926;29;20191;-70
2023/01/05 09:01:32;;;;;;;5.82;3.17;;;-6.40;99.90;;;;;;4737258;29;85685;-70
2023/01/05 09:04:00;;;;;;;4.47;2.92;;;-6.40;99.90;;;;;;4781421;29;20540;-72
2023/01/05 09:06:28;;;;;;;6.10;3.00;;;-6.20;99.90;;;;;;4777318;29;20585;-71
2023/01/05 09:08:56;;;;;;;5.50;2.72;;;-6.00;99.90;;;;;;4783286;29;20078;-71
2023/01/05 09:11:25;;;;;;;6.22;2.65;;;-5.90;99.90;;;;;;4778972;29;20462;-71
2023/01/05 09:13:56;;;;;;;7.45;3.25;;;-5.80;99.90;;;;;;4779950;29;20059;-69
2023/01/05 09:16:28;;;;;;;5.72;2.85;;;-5.70;99.90;;;;;;4784775;29;20642;-70
2023/01/05 09:18:57;;;;;;;6.05;2.80;;;-5.70;99.90;;;;;;4786319;29;20059;-68
2023/01/05 09:21:25;;;;;;;6.45;3.00;;;-5.80;99.90;;;;;;4780259;29;20470;-69
2023/01/05 09:23:52;;;;;;;10.10;2.50;;;-5.80;99.90;;;;;;4785515;29;20047;-75
2023/01/05 09:26:20;;;;;;;7.78;3.13;;;-5.90;99.90;;;;;;4781470;29;20437;-75
2023/01/05 09:28:48;;;;;;;6.75;3.20;;;-6.10;99.90;;;;;;4778581;29;20066;-75
2023/01/05 09:31:20;;;;;;;10.63;3.92;;;-6.20;99.90;;;;;;4779177;29;20479;-74
2023/01/05 09:33:48;;;;;;;11.32;3.85;;;-6.20;99.90;;;;;;4787503;29;20055;-75
2023/01/05 09:36:18;;;;;;;5.40;3.70;;;-6.30;99.90;;;;;;4781223;29;20108;-75
2023/01/05 09:38:49;;;;;;;10.13;3.30;;;-6.30;99.90;;;;;;4780945;29;20052;-70
2023/01/05 09:41:23;;;;;;;9.45;3.10;;;-6.40;99.90;;;;;;4778841;29;20067;-69
2023/01/05 09:43:54;;;;;;;5.45;2.53;;;-6.50;99.90;;;;;;4780348;29;20527;-70
2023/01/05 09:46:29;;;;;;;4.53;3.05;;;-6.40;99.90;;;;;;4781954;29;20432;-70
2023/01/05 09:49:01;;;;;;;8.45;2.97;;;-6.40;99.90;;;;;;4780889;29;20078;-70
2023/01/05 09:51:29;;;;;;;5.73;3.13;;;-6.40;99.90;;;;;;4774971;29;20105;-69
2023/01/05 09:53:59;;;;;;;6.95;3.05;;;-6.30;99.90;;;;;;4784160;29;20075;-74
2023/01/05 09:56:31;;;;;;;6.75;3.35;;;-6.30;99.90;;;;;;4793174;29;20059;-75
2023/01/05 09:59:07;;;;;;;5.97;3.03;;;-6.20;99.90;;;;;;4773905;29;20573;-77
2023/01/05 10:01:38;;;;;;;7.93;3.38;;;-6.10;99.90;;;;;;4778786;29;20058;-71
2023/01/05 10:04:11;;;;;;;8.15;3.70;;;-6.30;99.90;;;;;;4779075;29;20051;-75
2023/01/05 10:06:45;;;;;;;5.03;2.30;;;-6.30;99.90;;;;;;4775125;29;20062;-74
2023/01/05 10:09:18;;;;;;;8.80;2.20;;;-6.20;99.90;;;;;;4777941;29;20488;-76
2023/01/05 10:14:47;;;;;;;8.65;3.10;;;-6.20;99.90;;;;;;4783589;29;20429;-69
2023/01/05 10:17:20;;;;;;;8.20;2.50;;;-6.20;99.90;;;;;;4782124;29;20055;-69
2023/01/05 10:19:54;;;;;;;88.32;32.95;;;-6.00;99.90;;;;;;4783363;29;20147;-71
2023/01/05 10:22:39;;;;;;;6.07;3.78;;;-5.90;99.90;;;;;;4780135;29;20606;-69
2023/01/05 10:25:20;;;;;;;4.05;2.70;;;-5.90;99.90;;;;;;4784181;29;20058;-70
2023/01/05 10:27:55;;;;;;;6.80;3.33;;;-6.00;99.90;;;;;;4780383;29;20401;-74
2023/01/05 10:30:26;;;;;;;5.53;2.85;;;-5.90;99.90;;;;;;4778461;29;20485;-77
2023/01/05 10:33:00;;;;;;;5.10;2.50;;;-5.70;99.90;;;;;;4777523;29;20055;-76
2023/01/05 10:35:53;;;;;;;4.30;2.63;;;-5.40;99.90;;;;;;4784195;29;20078;-78
2023/01/05 10:38:37;;;;;;;5.95;2.83;;;-5.10;99.90;;;;;;4781803;29;20084;-74
2023/01/05 10:41:18;;;;;;;10.43;3.65;;;-5.20;99.90;;;;;;4780623;29;20059;-71
2023/01/05 10:44:22;;;;;;;3.65;2.22;;;-5.70;99.90;;;;;;4783624;29;20051;-77
2023/01/05 10:46:50;;;;;;;5.65;2.78;;;-6.00;99.90;;;;;;4777367;29;20142;-76
2023/01/05 10:49:24;;;;;;;6.35;2.83;;;-6.30;99.90;;;;;;4783639;29;20054;-76
2023/01/05 10:51:52;;;;;;;4.32;2.65;;;-6.40;99.90;;;;;;4780839;29;20058;-77
2023/01/05 10:54:36;;;;;;;7.18;3.13;;;-5.80;99.90;;;;;;4780920;29;20630;-74
2023/01/05 10:57:38;;;;;;;5.40;3.20;;;-5.00;99.90;;;;;;4781221;29;20055;-74
2023/01/05 11:00:13;;;;;;;8.15;4.35;;;-5.10;99.90;;;;;;4780066;29;20159;-75
2023/01/05 11:02:48;;;;;;;7.05;3.72;;;-5.60;99.90;;;;;;4778288;29;20051;-74
2023/01/05 11:05:34;;;;;;;8.00;3.05;;;-6.00;99.90;;;;;;4779631;29;20101;-69
2023/01/05 11:08:04;;;;;;;8.27;2.72;;;-6.40;99.90;;;;;;4793462;29;20059;-69
2023/01/05 11:10:35;;;;;;;6.32;2.53;;;-6.60;99.90;;;;;;4779839;29;20120;-69
2023/01/05 11:13:06;;;;;;;8.80;2.92;;;-6.80;99.90;;;;;;4780504;29;20074;-70
2023/01/05 11:15:41;;;;;;;10.77;3.65;;;-6.80;99.90;;;;;;4782235;29;20062;-74
2023/01/05 11:18:25;;;;;;;7.45;3.40;;;-7.00;99.90;;;;;;4778548;29;20047;-76
2023/01/05 11:21:10;;;;;;;5.20;2.80;;;-7.10;99.90;;;;;;4783496;29;21097;-70
2023/01/05 11:23:41;;;;;;;9.70;2.90;;;-7.10;99.90;;;;;;4780286;29;20059;-69
2023/01/05 11:26:27;;;;;;;5.53;2.75;;;-7.10;99.90;;;;;;4781684;29;20174;-71
2023/01/05 11:29:13;;;;;;;7.32;3.53;;;-7.10;99.90;;;;;;4783310;29;20085;-75
2023/01/05 11:31:48;;;;;;;9.82;3.05;;;-7.10;99.90;;;;;;4778092;29;20539;-74
2023/01/05 11:34:39;;;;;;;6.63;2.92;;;-7.00;99.90;;;;;;4781353;29;20447;-75
2023/01/05 11:37:23;;;;;;;6.20;2.95;;;-7.00;99.90;;;;;;4793476;29;20134;-70
2023/01/05 11:39:55;;;;;;;4.93;3.00;;;-6.90;99.90;;;;;;4782762;29;20142;-70
2023/01/05 11:42:31;;;;;;;7.18;3.60;;;-6.90;99.90;;;;;;4775304;29;20051;-70
2023/01/05 11:45:01;;;;;;;8.13;4.13;;;-6.80;99.90;;;;;;4777177;29;20048;-69
2023/01/05 11:47:34;;;;;;;;;;;-6.80;99.90;;;;;;4781297;29;20051;-69
2023/01/05 11:50:07;;;;;;;7.15;2.70;;;-6.80;99.90;;;;;;4778008;29;19929;-70
2023/01/05 11:52:39;;;;;;;4.00;2.70;;;-6.80;99.90;;;;;;4780792;29;20055;-70
2023/01/05 11:55:29;;;;;;;7.27;3.00;;;-6.80;99.90;;;;;;4781167;29;20066;-70
2023/01/05 11:58:25;;;;;;;4.40;3.22;;;-6.90;99.90;;;;;;4781172;29;20357;-69
2023/01/05 12:01:41;;;;;;;5.70;3.30;;;-6.90;99.90;;;;;;4781057;29;20060;-69
2023/01/05 12:04:45;;;;;;;8.70;3.25;;;-6.90;99.90;;;;;;4733435;30;20067;-69
2023/01/05 12:07:29;;;;;;;9.65;2.90;;;-7.00;99.90;;;;;;4780452;29;20375;-73
2023/01/05 12:10:25;;;;;;;7.50;3.67;;;-6.90;99.90;;;;;;4776692;29;20058;-75
2023/01/05 12:13:04;;;;;;;5.00;3.25;;;-7.00;99.90;;;;;;4778965;29;20554;-76
2023/01/05 12:16:05;;;;;;;7.28;3.00;;;-7.00;99.90;;;;;;4783541;29;20051;-74
2023/01/05 12:19:07;;;;;;;6.65;2.83;;;-7.10;99.90;;;;;;4779921;29;20436;-76
2023/01/05 12:21:39;;;;;;;7.03;2.60;;;-7.10;99.90;;;;;;4778593;29;20518;-69
2023/01/05 12:24:30;;;;;;;8.20;3.55;;;-7.10;99.90;;;;;;4782943;29;20055;-76
2023/01/05 12:27:19;;;;;;;4.50;2.78;;;-7.20;99.90;;;;;;4780633;29;20055;-75
2023/01/05 12:30:15;;;;;;;6.53;3.05;;;-7.20;99.90;;;;;;4782440;29;20051;-74
2023/01/05 12:33:13;;;;;;;9.38;4.07;;;-7.30;99.90;;;;;;4782587;29;20066;-74
2023/01/05 12:35:55;;;;;;;8.02;3.50;;;-7.30;99.90;;;;;;4785754;29;20123;-76
2023/01/05 12:38:43;;;;;;;10.57;3.33;;;-7.40;99.90;;;;;;4781559;29;20153;-74
2023/01/05 12:41:44;;;;;;;8.60;4.45;;;;;;;;;;4779692;29;20061;-74
2023/01/05 12:44:48;;;;;;;7.28;3.10;;;-7.50;99.90;;;;;;4784497;29;20397;-71
2023/01/05 12:47:31;;;;;;;8.32;3.30;;;-7.40;99.90;;;;;;4788220;29;20130;-69
2023/01/05 12:50:03;;;;;;;9.45;4.05;;;-7.40;99.90;;;;;;4790994;29;20504;-70
2023/01/05 12:52:36;;;;;;;7.20;3.83;;;-7.50;99.90;;;;;;4767693;29;20054;-72
2023/01/05 12:55:17;;;;;;;10.25;2.95;;;-7.50;99.90;;;;;;4777388;29;20480;-73
2023/01/05 12:57:52;;;;;;;7.75;3.72;;;-7.50;99.90;;;;;;4781030;29;20058;-73
2023/01/05 13:00:24;;;;;;;10.23;3.75;;;-7.50;99.90;;;;;;4781118;29;20050;-69
2023/01/05 13:02:58;;;;;;;9.20;3.17;;;-7.60;99.90;;;;;;4784245;29;20153;-70
2023/01/05 13:05:32;;;;;;;10.07;3.40;;;-7.60;99.90;;;;;;4793651;29;20047;-71
2023/01/05 13:08:07;;;;;;;6.13;3.20;;;-7.60;99.90;;;;;;4789103;29;20062;-72
2023/01/05 13:10:50;;;;;;;8.90;3.92;;;-7.60;99.90;;;;;;4783873;29;20055;-69
2023/01/05 13:13:23;;;;;;;6.22;3.10;;;-7.50;99.90;;;;;;4794740;29;20067;-70
2023/01/05 13:15:59;;;;;;;11.27;3.40;;;-7.40;99.90;;;;;;4788477;29;20794;-71
2023/01/05 13:18:28;;;;;;;12.93;3.70;;;-7.40;99.90;;;;;;4788777;29;20074;-73
2023/01/05 13:20:58;;;;;;;11.77;4.35;;;-7.40;99.90;;;;;;4791742;29;20101;-71
2023/01/05 13:23:30;;;;;;;8.35;4.00;;;-7.30;99.90;;;;;;4789575;29;20050;-72
2023/01/05 13:26:03;;;;;;;10.20;3.30;;;-7.30;99.90;;;;;;4787726;29;20054;-71
2023/01/05 13:28:30;;;;;;;13.25;4.03;;;-7.30;99.90;;;;;;4786304;29;20138;-71
2023/01/05 13:31:55;;;;;;;11.40;4.10;;;-7.30;99.90;;;;;;4791133;29;20445;-70
2023/01/05 13:35:00;;;;;;;12.02;4.80;;;-7.30;99.90;;;;;;4791652;29;20061;-72
2023/01/05 13:38:14;;;;;;;10.82;4.90;;;-7.40;99.90;;;;;;4787220;29;20051;-71
2023/01/05 13:41:17;;;;;;;15.52;5.60;;;-7.50;99.90;;;;;;4744005;29;20124;-71
2023/01/05 13:44:04;;;;;;;;;;;-7.50;99.90;;;;;;4789535;29;20083;-68
2023/01/05 13:47:05;;;;;;;19.40;6.43;;;-7.50;99.90;;;;;;4784636;29;19930;-71
2023/01/05 13:50:32;;;;;;;14.35;7.50;;;-7.50;99.90;;;;;;4793321;29;20400;-70
2023/01/05 13:53:10;;;;;;;18.95;6.43;;;-7.50;99.90;;;;;;4755630;29;20588;-75
2023/01/05 13:55:47;;;;;;;16.63;7.13;;;-7.60;99.90;;;;;;4794773;29;20203;-73
2023/01/05 13:58:36;;;;;;;13.73;6.18;;;-7.60;99.90;;;;;;4797633;29;20059;-74